Terminal Aerodrome Forecast
Issued by NWS

Home | Current Version | Previous Version | Text Only | Print | Product List | Glossary On
Versions: 1 2 3 4 5 6 7 8 9 10 11 12 13 14 15 16 17 18 19 20 21 22 23 24 25 26 27 28 29 30 31
000
FTUS42 KGSP 281729
TAFHKY
TAF
KHKY 281729Z 2818/2918 VRB04KT P6SM SKC
     FM290100 17003KT P6SM FEW160
     FM291300 18004KT P6SM SCT140
     FM291600 20007KT P6SM BKN140=

USA.gov is the U.S. government's official web portal to all federal, state and local government web resources and services.